createdAt,value
2022-12-27T00:01:30.725Z,86.99
2022-12-27T00:04:19.345Z,87.27
2022-12-27T00:07:08.164Z,89.20
2022-12-27T00:09:56.602Z,90.20
2022-12-27T00:12:46.348Z,89.99
2022-12-27T00:15:34.963Z,89.84
2022-12-27T00:18:23.455Z,91.15
2022-12-27T00:21:13.677Z,89.40
2022-12-27T00:24:03.906Z,90.37
2022-12-27T00:26:52.346Z,91.15
2022-12-27T00:29:42.118Z,91.66
2022-12-27T00:32:30.623Z,92.89
2022-12-27T00:35:19.292Z,93.59
2022-12-27T00:38:07.780Z,96.00
2022-12-27T00:40:56.258Z,97.91
2022-12-27T00:43:44.763Z,98.79
2022-12-27T00:46:34.585Z,98.53
2022-12-27T00:49:23.070Z,99.62
2022-12-27T00:52:11.574Z,100.00
2022-12-27T00:55:00.115Z,100.00
2022-12-27T00:57:48.571Z,100.00
2022-12-27T01:00:37.039Z,100.00
2022-12-27T01:03:26.901Z,100.00
2022-12-27T01:06:17.145Z,99.85
2022-12-27T01:09:06.288Z,100.00
2022-12-27T01:11:54.691Z,100.00
2022-12-27T01:14:43.495Z,100.00
2022-12-27T01:17:32.108Z,100.00
2022-12-27T01:20:22.205Z,100.00
2022-12-27T01:23:10.717Z,100.00
2022-12-27T01:26:02.596Z,100.00
2022-12-27T01:28:52.682Z,100.00
2022-12-27T01:31:41.592Z,100.00
2022-12-27T01:34:30.086Z,100.00
2022-12-27T01:37:19.881Z,100.00
2022-12-27T01:40:09.944Z,100.00
2022-12-27T01:42:57.431Z,100.00
2022-12-27T01:45:47.288Z,100.00
2022-12-27T01:48:35.769Z,100.00
2022-12-27T01:51:24.218Z,100.00
2022-12-27T01:54:14.045Z,100.00
2022-12-27T01:57:02.639Z,100.00
2022-12-27T01:59:51.077Z,100.00
2022-12-27T02:02:40.229Z,100.00
2022-12-27T02:05:28.909Z,100.00
2022-12-27T02:08:29.558Z,100.00
2022-12-27T02:11:42.208Z,100.00
2022-12-27T02:14:33.409Z,100.00
2022-12-27T02:17:24.911Z,100.00
2022-12-27T02:20:15.622Z,100.00
2022-12-27T02:23:46.723Z,100.00
2022-12-27T02:26:44.207Z,100.00
2022-12-27T02:30:01.754Z,100.00
2022-12-27T02:32:56.065Z,100.00
2022-12-27T02:35:48.259Z,100.00
2022-12-27T02:38:39.026Z,100.00
2022-12-27T02:41:45.079Z,100.00
2022-12-27T02:44:51.222Z,100.00
2022-12-27T02:47:59.064Z,100.00
2022-12-27T02:51:12.903Z,100.00
2022-12-27T02:54:09.264Z,100.00
2022-12-27T02:57:11.227Z,100.00
2022-12-27T03:00:27.229Z,100.00
2022-12-27T03:03:47.811Z,100.00
2022-12-27T03:06:49.363Z,100.00
2022-12-27T03:10:01.937Z,100.00
2022-12-27T03:13:15.206Z,100.00
2022-12-27T03:16:13.282Z,100.00
2022-12-27T03:19:10.046Z,100.00
2022-12-27T03:22:16.369Z,100.00
2022-12-27T03:25:23.162Z,100.00
2022-12-27T03:28:33.154Z,100.00
2022-12-27T03:31:43.854Z,100.00
2022-12-27T03:34:39.809Z,100.00
2022-12-27T03:37:48.603Z,100.00
2022-12-27T03:41:02.218Z,100.00
2022-12-27T03:43:51.657Z,100.00
2022-12-27T03:46:43.386Z,100.00
2022-12-27T03:49:35.775Z,100.00
2022-12-27T03:52:26.978Z,100.00
2022-12-27T03:55:15.982Z,100.00
2022-12-27T03:58:04.733Z,100.00
2022-12-27T04:00:53.215Z,100.00
2022-12-27T04:03:41.667Z,100.00
2022-12-27T04:06:31.432Z,100.00
2022-12-27T04:09:37.443Z,100.00
2022-12-27T04:12:43.583Z,100.00
2022-12-27T04:15:50.137Z,100.00
2022-12-27T04:18:56.183Z,100.00
2022-12-27T04:22:03.362Z,100.00
2022-12-27T04:25:09.355Z,100.00
2022-12-27T04:28:15.382Z,100.00
2022-12-27T04:31:21.669Z,100.00
2022-12-27T04:34:27.796Z,100.00
2022-12-27T04:37:18.828Z,100.00
2022-12-27T04:40:26.220Z,100.00
2022-12-27T04:43:32.267Z,100.00
2022-12-27T04:46:40.960Z,100.00
2022-12-27T04:49:47.273Z,100.00
2022-12-27T04:52:54.607Z,100.00
2022-12-27T04:55:43.006Z,100.00
2022-12-27T04:58:31.647Z,100.00
2022-12-27T05:01:37.689Z,100.00
2022-12-27T05:04:26.334Z,100.00
2022-12-27T05:07:32.989Z,100.00
2022-12-27T05:10:40.500Z,100.00
2022-12-27T05:13:46.451Z,100.00
2022-12-27T05:16:37.317Z,100.00
2022-12-27T05:19:25.735Z,100.00
2022-12-27T05:22:31.798Z,100.00
2022-12-27T05:25:35.565Z,100.00
2022-12-27T05:28:25.454Z,100.00
2022-12-27T05:31:13.920Z,100.00
2022-12-27T05:34:02.480Z,100.00
2022-12-27T05:36:50.896Z,100.00
2022-12-27T05:39:39.371Z,100.00
2022-12-27T05:42:27.773Z,100.00
2022-12-27T05:45:17.805Z,100.00
2022-12-27T05:48:06.965Z,100.00
2022-12-27T05:50:55.599Z,100.00
2022-12-27T05:53:44.275Z,100.00
2022-12-27T05:56:35.359Z,100.00
2022-12-27T05:59:23.797Z,100.00
2022-12-27T06:02:13.729Z,100.00
2022-12-27T06:05:02.235Z,100.00
2022-12-27T06:07:50.787Z,100.00
2022-12-27T06:10:39.309Z,100.00
2022-12-27T06:13:27.728Z,100.00
2022-12-27T06:16:16.181Z,100.00
2022-12-27T06:19:05.982Z,100.00
2022-12-27T06:21:54.425Z,100.00
2022-12-27T06:24:42.925Z,100.00
2022-12-27T06:27:31.331Z,100.00
2022-12-27T06:30:19.890Z,100.00
2022-12-27T06:33:08.419Z,100.00
2022-12-27T06:35:58.298Z,100.00
2022-12-27T06:38:47.535Z,100.00
2022-12-27T06:41:36.019Z,100.00
2022-12-27T06:44:24.496Z,100.00
2022-12-27T06:47:12.951Z,100.00
2022-12-27T06:50:01.431Z,100.00
2022-12-27T06:52:51.309Z,100.00
2022-12-27T06:55:39.746Z,100.00
2022-12-27T06:58:28.201Z,100.00
2022-12-27T07:01:18.366Z,100.00
2022-12-27T07:04:06.900Z,100.00
2022-12-27T07:06:55.334Z,100.00
2022-12-27T07:09:45.154Z,100.00
2022-12-27T07:12:36.771Z,100.00
2022-12-27T07:15:26.052Z,100.00
2022-12-27T07:18:14.560Z,100.00
2022-12-27T07:21:05.221Z,100.00
2022-12-27T07:23:54.151Z,100.00
2022-12-27T07:26:43.944Z,100.00
2022-12-27T07:29:32.366Z,100.00
2022-12-27T07:32:20.850Z,100.00
2022-12-27T07:35:09.597Z,100.00
2022-12-27T07:37:58.045Z,100.00
2022-12-27T07:40:46.566Z,100.00
2022-12-27T07:43:36.909Z,100.00
2022-12-27T07:46:26.552Z,100.00
2022-12-27T07:49:17.930Z,100.00
2022-12-27T07:52:06.673Z,100.00
2022-12-27T07:54:55.165Z,100.00
2022-12-27T07:57:43.613Z,100.00
2022-12-27T08:00:33.492Z,100.00
2022-12-27T08:03:21.942Z,100.00
2022-12-27T08:06:20.844Z,100.00
2022-12-27T08:09:12.246Z,100.00
2022-12-27T08:12:00.706Z,100.00
2022-12-27T08:14:49.191Z,100.00
2022-12-27T08:17:39.078Z,100.00
2022-12-27T08:20:27.599Z,100.00
2022-12-27T08:23:16.252Z,100.00
2022-12-27T08:26:04.996Z,100.00
2022-12-27T08:28:53.443Z,100.00
2022-12-27T08:31:41.921Z,100.00
2022-12-27T08:34:31.743Z,100.00
2022-12-27T08:37:20.209Z,100.00
2022-12-27T08:40:09.614Z,100.00
2022-12-27T08:42:58.055Z,100.00
2022-12-27T08:45:46.627Z,100.00
2022-12-27T08:48:37.406Z,100.00
2022-12-27T08:51:35.947Z,100.00
2022-12-27T08:54:29.000Z,100.00
2022-12-27T08:57:17.424Z,100.00
2022-12-27T09:00:08.392Z,100.00
2022-12-27T09:02:56.911Z,100.00
2022-12-27T09:05:46.175Z,100.00
2022-12-27T09:08:36.015Z,100.00
2022-12-27T09:11:25.656Z,100.00
2022-12-27T09:14:14.149Z,100.00
2022-12-27T09:17:02.683Z,100.00
2022-12-27T09:19:51.202Z,100.00
2022-12-27T09:22:39.917Z,100.00
2022-12-27T09:25:29.835Z,94.52
2022-12-27T09:28:18.290Z,90.00
2022-12-27T09:31:07.283Z,88.67
2022-12-27T09:33:55.891Z,86.98
2022-12-27T09:36:44.318Z,86.88
2022-12-27T09:39:32.829Z,85.97
2022-12-27T09:43:09.508Z,84.88
2022-12-27T09:45:52.664Z,86.21
2022-12-27T09:48:41.701Z,86.15
2022-12-27T09:51:33.696Z,85.54
2022-12-27T09:54:24.158Z,85.68
2022-12-27T09:57:20.488Z,85.05
2022-12-27T10:00:17.304Z,84.90
2022-12-27T10:03:06.679Z,83.23
2022-12-27T10:06:00.379Z,84.04
2022-12-27T10:08:53.024Z,83.11
2022-12-27T10:11:48.183Z,82.01
2022-12-27T10:14:50.004Z,82.74
2022-12-27T10:17:53.146Z,82.56
2022-12-27T10:20:54.586Z,82.63
2022-12-27T10:23:45.767Z,82.36
2022-12-27T10:26:34.238Z,81.07
2022-12-27T10:29:24.822Z,80.45
2022-12-27T10:32:14.845Z,80.46
2022-12-27T10:35:09.606Z,78.30
2022-12-27T10:38:00.111Z,78.75
2022-12-27T10:40:55.045Z,77.54
2022-12-27T10:43:44.566Z,78.10
2022-12-27T10:46:34.008Z,78.94
2022-12-27T10:49:26.698Z,79.65
2022-12-27T10:52:19.684Z,79.64
2022-12-27T10:55:32.488Z,79.17
2022-12-27T10:58:24.322Z,75.92
2022-12-27T11:01:17.500Z,76.01
2022-12-27T11:04:21.178Z,76.21
2022-12-27T11:07:14.803Z,76.95
2022-12-27T11:10:14.245Z,76.91
2022-12-27T11:13:03.778Z,76.96
2022-12-27T11:15:59.049Z,76.53
2022-12-27T11:18:50.069Z,76.65
2022-12-27T11:21:39.140Z,76.38
2022-12-27T11:24:28.240Z,76.67
2022-12-27T11:27:24.399Z,77.00
2022-12-27T11:30:23.575Z,75.45
2022-12-27T11:33:24.585Z,75.61
2022-12-27T11:36:15.196Z,75.64
2022-12-27T11:39:04.075Z,74.78
2022-12-27T11:41:54.111Z,75.85
2022-12-27T11:44:47.729Z,75.43
2022-12-27T11:47:41.484Z,75.28
2022-12-27T11:50:44.280Z,76.69
2022-12-27T11:54:08.301Z,75.11
2022-12-27T11:57:01.830Z,77.20
2022-12-27T12:00:00.218Z,76.47
2022-12-27T12:03:03.768Z,76.92
2022-12-27T12:06:02.320Z,75.72
2022-12-27T12:09:27.770Z,77.64
2022-12-27T12:12:33.203Z,77.63
2022-12-27T12:15:38.225Z,77.45
2022-12-27T12:18:49.137Z,77.54
2022-12-27T12:21:41.616Z,78.53
2022-12-27T12:24:47.636Z,77.68
2022-12-27T12:27:43.901Z,78.35
2022-12-27T12:30:49.483Z,77.08
2022-12-27T12:34:00.750Z,77.14
2022-12-27T12:37:20.764Z,75.77
2022-12-27T12:40:26.568Z,74.85
2022-12-27T12:43:25.281Z,74.65
2022-12-27T12:46:22.774Z,75.88
2022-12-27T12:49:28.733Z,75.16
2022-12-27T12:52:33.021Z,74.29
2022-12-27T12:55:38.503Z,75.80
2022-12-27T12:58:43.088Z,76.00
2022-12-27T13:01:50.466Z,76.06
2022-12-27T13:04:59.827Z,76.88
2022-12-27T13:07:57.396Z,75.70
2022-12-27T13:11:14.431Z,75.41
2022-12-27T13:14:14.115Z,75.66
2022-12-27T13:17:08.031Z,75.79
2022-12-27T13:20:08.008Z,76.15
2022-12-27T13:23:07.701Z,76.77
2022-12-27T13:26:03.046Z,76.34
2022-12-27T13:29:08.237Z,76.08
2022-12-27T13:32:05.783Z,75.64
2022-12-27T13:35:02.997Z,76.48
2022-12-27T13:37:58.907Z,75.41
2022-12-27T13:41:00.729Z,75.89
2022-12-27T13:44:16.387Z,75.33
2022-12-27T13:47:43.365Z,74.93
2022-12-27T13:51:06.750Z,75.43
2022-12-27T13:54:44.841Z,74.39
2022-12-27T13:57:52.837Z,74.52
2022-12-27T14:00:46.904Z,75.46
2022-12-27T14:03:56.253Z,75.00
2022-12-27T14:06:53.919Z,74.73
2022-12-27T14:10:00.415Z,74.23
2022-12-27T14:13:00.207Z,75.81
2022-12-27T14:16:12.010Z,76.49
2022-12-27T14:19:20.863Z,75.55
2022-12-27T14:22:30.455Z,74.65
2022-12-27T14:26:00.553Z,75.13
2022-12-27T14:29:16.822Z,75.94
2022-12-27T14:32:25.414Z,76.23
2022-12-27T14:35:57.799Z,77.62
2022-12-27T14:38:58.947Z,77.69
2022-12-27T14:42:20.155Z,79.72
2022-12-27T14:45:41.237Z,78.89
2022-12-27T14:49:23.535Z,78.11
2022-12-27T14:52:42.455Z,79.76
2022-12-27T14:55:41.808Z,78.93
2022-12-27T14:58:44.323Z,80.10
2022-12-27T15:01:44.712Z,80.83
2022-12-27T15:04:59.643Z,81.11
2022-12-27T15:08:15.746Z,81.04
2022-12-27T15:11:20.366Z,78.86
2022-12-27T15:14:19.640Z,79.42
2022-12-27T15:17:16.956Z,81.05
2022-12-27T15:20:22.164Z,80.95
2022-12-27T15:23:19.842Z,81.72
2022-12-27T15:26:18.359Z,83.04
2022-12-27T15:29:20.085Z,83.61
2022-12-27T15:32:21.326Z,84.51
2022-12-27T15:35:24.721Z,85.17
2022-12-27T15:38:15.794Z,86.36
2022-12-27T15:41:24.812Z,86.98
2022-12-27T15:44:31.164Z,87.90
2022-12-27T15:47:48.886Z,88.32
2022-12-27T15:50:46.546Z,89.03
2022-12-27T15:53:58.933Z,89.08
2022-12-27T15:57:00.529Z,91.53
2022-12-27T15:59:51.711Z,93.39
2022-12-27T16:02:51.634Z,94.12
2022-12-27T16:05:44.189Z,94.94
2022-12-27T16:08:38.758Z,95.29
2022-12-27T16:12:02.040Z,96.54
2022-12-27T16:14:51.050Z,97.81
2022-12-27T16:17:46.057Z,99.08
2022-12-27T16:20:34.688Z,99.40
2022-12-27T16:23:24.251Z,99.65
2022-12-27T16:26:19.631Z,100.00
2022-12-27T16:29:15.706Z,100.00
2022-12-27T16:32:17.447Z,100.00
2022-12-27T16:35:13.987Z,100.00
2022-12-27T16:38:04.454Z,100.00
2022-12-27T16:40:56.796Z,100.00
2022-12-27T16:43:55.552Z,100.00
2022-12-27T16:47:01.328Z,100.00
2022-12-27T16:50:01.138Z,100.00
2022-12-27T16:52:55.977Z,100.00
2022-12-27T16:56:06.763Z,100.00
2022-12-27T16:58:55.470Z,100.00
2022-12-27T17:02:00.352Z,100.00
2022-12-27T17:04:54.189Z,100.00
2022-12-27T17:07:50.931Z,100.00
2022-12-27T17:11:00.729Z,100.00
2022-12-27T17:13:50.919Z,100.00
2022-12-27T17:16:42.828Z,100.00
2022-12-27T17:19:36.064Z,100.00
2022-12-27T17:22:30.455Z,100.00
2022-12-27T17:25:28.964Z,100.00
2022-12-27T17:28:22.152Z,100.00
2022-12-27T17:31:15.376Z,100.00
2022-12-27T17:34:12.242Z,100.00
2022-12-27T17:37:08.975Z,100.00
2022-12-27T17:40:10.200Z,100.00
2022-12-27T17:43:24.288Z,100.00
2022-12-27T17:46:22.685Z,100.00
2022-12-27T17:49:11.910Z,100.00
2022-12-27T17:52:19.884Z,100.00
2022-12-27T17:55:34.438Z,100.00
2022-12-27T17:58:22.941Z,100.00
2022-12-27T18:01:11.580Z,100.00
2022-12-27T18:04:00.243Z,100.00
2022-12-27T18:06:48.757Z,100.00
2022-12-27T18:09:40.851Z,100.00
2022-12-27T18:12:31.547Z,100.00
2022-12-27T18:15:22.428Z,100.00
2022-12-27T18:18:13.665Z,100.00
2022-12-27T18:21:05.057Z,100.00
2022-12-27T18:23:54.140Z,100.00
2022-12-27T18:26:44.023Z,100.00
2022-12-27T18:29:32.904Z,100.00
2022-12-27T18:32:21.759Z,100.00
2022-12-27T18:35:17.429Z,100.00
2022-12-27T18:38:09.182Z,100.00
2022-12-27T18:41:03.305Z,100.00
2022-12-27T18:43:57.875Z,100.00
2022-12-27T18:46:50.307Z,100.00
2022-12-27T18:49:38.940Z,100.00
2022-12-27T18:52:32.341Z,100.00
2022-12-27T18:55:23.728Z,100.00
2022-12-27T18:58:20.559Z,100.00
2022-12-27T19:01:38.334Z,100.00
2022-12-27T19:04:28.805Z,100.00
2022-12-27T19:07:17.276Z,100.00
2022-12-27T19:10:06.769Z,100.00
2022-12-27T19:12:56.149Z,100.00
2022-12-27T19:15:45.203Z,100.00
2022-12-27T19:18:38.175Z,100.00
2022-12-27T19:21:31.850Z,100.00
2022-12-27T19:24:34.015Z,100.00
2022-12-27T19:27:24.777Z,100.00
2022-12-27T19:30:31.826Z,100.00
2022-12-27T19:33:25.382Z,100.00
2022-12-27T19:36:15.317Z,100.00
2022-12-27T19:39:04.737Z,100.00
2022-12-27T19:41:53.736Z,100.00
2022-12-27T19:44:49.620Z,100.00
2022-12-27T19:47:39.730Z,100.00
2022-12-27T19:50:28.320Z,100.00
2022-12-27T19:53:22.263Z,100.00
2022-12-27T19:56:11.834Z,100.00
2022-12-27T19:59:00.366Z,100.00
2022-12-27T20:01:49.070Z,100.00
2022-12-27T20:04:37.720Z,100.00
2022-12-27T20:07:26.591Z,100.00
2022-12-27T20:10:16.582Z,100.00
2022-12-27T20:13:05.097Z,100.00
2022-12-27T20:15:55.301Z,100.00
2022-12-27T20:18:44.348Z,100.00
2022-12-27T20:21:33.566Z,100.00
2022-12-27T20:24:23.092Z,100.00
2022-12-27T20:27:13.022Z,100.00
2022-12-27T20:30:01.555Z,100.00
2022-12-27T20:32:50.167Z,100.00
2022-12-27T20:35:38.804Z,100.00
2022-12-27T20:38:27.425Z,100.00
2022-12-27T20:41:17.683Z,100.00
2022-12-27T20:44:07.852Z,100.00
2022-12-27T20:46:56.344Z,100.00
2022-12-27T20:49:45.063Z,100.00
2022-12-27T20:52:34.290Z,100.00
2022-12-27T20:55:22.820Z,100.00
2022-12-27T20:58:11.372Z,100.00
2022-12-27T21:01:07.037Z,100.00
2022-12-27T21:03:56.718Z,100.00
2022-12-27T21:06:45.236Z,100.00
2022-12-27T21:09:34.379Z,100.00
2022-12-27T21:12:22.872Z,100.00
2022-12-27T21:15:12.352Z,100.00
2022-12-27T21:18:02.213Z,100.00
2022-12-27T21:20:50.662Z,100.00
2022-12-27T21:23:39.568Z,100.00
2022-12-27T21:26:30.230Z,100.00
2022-12-27T21:29:19.357Z,100.00
2022-12-27T21:32:08.326Z,100.00
2022-12-27T21:34:58.252Z,100.00
2022-12-27T21:37:46.750Z,100.00
2022-12-27T21:40:35.276Z,100.00
2022-12-27T21:43:23.821Z,100.00
2022-12-27T21:46:14.851Z,100.00
2022-12-27T21:49:04.788Z,100.00
2022-12-27T21:51:55.744Z,100.00
2022-12-27T21:54:44.237Z,100.00
2022-12-27T21:57:32.738Z,100.00
2022-12-27T22:00:21.173Z,100.00
2022-12-27T22:03:09.798Z,100.00
2022-12-27T22:05:58.527Z,100.00
2022-12-27T22:08:51.229Z,100.00
2022-12-27T22:11:40.491Z,100.00
2022-12-27T22:14:33.284Z,100.00
2022-12-27T22:17:25.156Z,100.00
2022-12-27T22:20:13.862Z,100.00
2022-12-27T22:23:02.330Z,100.00
2022-12-27T22:25:52.135Z,100.00
2022-12-27T22:28:41.021Z,100.00
2022-12-27T22:31:31.152Z,100.00
2022-12-27T22:34:19.701Z,100.00
2022-12-27T22:37:08.233Z,100.00
2022-12-27T22:39:56.751Z,100.00
2022-12-27T22:42:46.556Z,100.00
2022-12-27T22:45:35.015Z,100.00
2022-12-27T22:48:23.445Z,100.00
2022-12-27T22:51:15.338Z,100.00
2022-12-27T22:54:05.393Z,100.00
2022-12-27T22:56:53.884Z,100.00
2022-12-27T22:59:44.254Z,100.00
2022-12-27T23:02:32.805Z,100.00
2022-12-27T23:05:21.358Z,100.00
2022-12-27T23:08:09.831Z,100.00
2022-12-27T23:11:02.968Z,100.00
2022-12-27T23:13:55.875Z,100.00
2022-12-27T23:16:46.926Z,100.00
2022-12-27T23:19:35.570Z,100.00
2022-12-27T23:22:24.150Z,100.00
2022-12-27T23:25:12.657Z,100.00
2022-12-27T23:28:01.109Z,100.00
2022-12-27T23:30:50.334Z,100.00
2022-12-27T23:33:40.889Z,100.00
2022-12-27T23:36:29.393Z,100.00
2022-12-27T23:39:17.882Z,100.00
2022-12-27T23:42:06.469Z,100.00
2022-12-27T23:44:54.946Z,100.00
2022-12-27T23:47:43.404Z,100.00
2022-12-27T23:50:33.173Z,100.00
2022-12-27T23:53:21.609Z,100.00
2022-12-27T23:56:15.229Z,100.00
2022-12-27T23:59:04.219Z,100.00
